Time;durP1;ratioP1;P1;durP2;ratioP2;P2;SDS_P1;SDS_P2;PMS_P1;PMS_P2;Temp;Humidity;BMP_temperature;BMP_pressure;BME280_temperature;BME280_humidity;BME280_pressure;Samples;Min_cycle;Max_cycle;Signal;HPM_P1;HPM_P2
2022/06/17 00:01:22;;;;;;;6.83;4.53;;;;;;;15.82;73.48;100614.34;1800317;79;21435;-72
2022/06/17 00:03:49;;;;;;;7.83;4.67;;;;;;;15.78;73.58;100620.61;1781902;79;21302;-71
2022/06/17 00:06:15;;;;;;;9.83;5.17;;;;;;;15.70;73.61;100625.56;1788574;78;21303;-71
2022/06/17 00:08:46;;;;;;;5.83;4.40;;;;;;;15.62;73.70;100622.67;1787984;79;21355;-71
2022/06/17 00:11:17;;;;;;;7.63;5.17;;;;;;;15.55;73.71;100620.33;1775441;79;21246;-71
2022/06/17 00:13:43;;;;;;;7.97;5.03;;;;;;;15.49;73.70;100624.97;1802812;78;21244;-71
2022/06/17 00:16:13;;;;;;;8.50;4.97;;;;;;;15.43;73.77;100623.97;1790089;78;21290;-71
2022/06/17 00:18:40;;;;;;;7.30;5.10;;;;;;;15.38;73.82;100620.02;1775471;79;21380;-71
2022/06/17 00:21:06;;;;;;;8.67;5.07;;;;;;;15.32;73.93;100622.50;1794243;79;21910;-72
2022/06/17 00:23:35;;;;;;;7.90;5.40;;;;;;;15.26;73.96;100617.70;1788082;79;21742;-71
2022/06/17 00:26:02;;;;;;;6.23;4.70;;;;;;;15.22;73.96;100624.21;1791724;78;21716;-72
2022/06/17 00:28:29;;;;;;;8.20;5.50;;;;;;;15.18;73.92;100619.15;1791841;79;21381;-71
2022/06/17 00:30:55;;;;;;;6.57;5.03;;;;;;;15.15;73.93;100626.99;1796916;78;21355;-71
2022/06/17 00:33:22;;;;;;;6.40;4.70;;;;;;;15.12;74.00;100627.56;1772090;79;21933;-71
2022/06/17 00:35:51;;;;;;;8.60;5.40;;;;;;;15.10;74.04;100623.00;1785252;79;21226;-78
2022/06/17 00:38:22;;;;;;;7.30;5.00;;;;;;;15.07;74.05;100616.84;1808202;78;21253;-71
2022/06/17 00:40:50;;;;;;;6.65;5.10;;;;;;;15.04;74.12;100625.48;1796972;79;21687;-71
2022/06/17 00:43:33;;;;;;;6.40;4.50;;;;;;;14.99;74.27;100618.27;1775304;79;21609;-72
2022/06/17 00:46:36;;;;;;;9.43;5.90;;;;;;;14.94;74.39;100617.80;1786921;78;21291;-72
2022/06/17 00:49:08;;;;;;;8.30;4.70;;;;;;;14.91;74.54;100615.67;1793611;79;21883;-72
2022/06/17 00:51:54;;;;;;;8.90;4.73;;;;;;;14.87;74.64;100616.51;1775707;79;21361;-73
2022/06/17 00:54:26;;;;;;;5.40;4.40;;;;;;;14.84;74.78;100611.69;1779422;79;21333;-72
2022/06/17 00:56:53;;;;;;;5.35;4.10;;;;;;;14.78;74.98;100616.34;1772306;79;27000;-72
2022/06/17 00:59:20;;;;;;;6.23;4.47;;;;;;;14.74;75.15;100617.97;1794502;79;21549;-73
2022/06/17 01:01:53;;;;;;;5.93;4.37;;;;;;;14.71;75.21;100613.19;1792932;79;21733;-73
2022/06/17 01:04:43;;;;;;;6.40;4.57;;;;;;;14.69;75.32;100616.69;1800491;78;21209;-73
2022/06/17 01:07:26;;;;;;;6.23;4.13;;;;;;;14.66;75.34;100618.59;1793419;78;21271;-72
2022/06/17 01:09:57;;;;;;;;;;;;;;;14.64;75.40;100618.06;1796498;78;21314;-72
2022/06/17 01:12:29;;;;;;;5.62;3.72;;;;;;;14.62;75.56;100613.53;1798065;79;21488;-71
2022/06/17 01:14:56;;;;;;;5.10;3.98;;;;;;;14.56;75.71;100610.63;1784261;78;21122;-72
2022/06/17 01:17:23;;;;;;;7.10;4.13;;;;;;;14.52;75.86;100609.84;1783858;80;21156;-72
2022/06/17 01:19:56;;;;;;;5.83;4.40;;;;;;;14.52;75.99;100607.70;1791405;78;21232;-72
2022/06/17 01:22:40;;;;;;;5.27;3.97;;;;;;;14.53;76.17;100599.34;1794894;78;21616;-71
2022/06/17 01:25:18;;;;;;;8.03;3.90;;;;;;;14.57;76.28;100599.57;1794844;78;21239;-73
2022/06/17 01:27:51;;;;;;;5.67;3.83;;;;;;;14.58;76.34;100599.85;1795037;78;21022;-72
2022/06/17 01:30:22;;;;;;;6.90;4.10;;;;;;;14.59;76.39;100600.10;1796193;78;21286;-72
2022/06/17 01:32:58;;;;;;;6.97;4.50;;;;;;;14.58;76.39;100599.03;1794309;78;21228;-73
2022/06/17 01:35:29;;;;;;;6.10;4.17;;;;;;;14.57;76.43;100602.81;1798375;78;21312;-71
2022/06/17 01:37:56;;;;;;;5.60;4.33;;;;;;;14.57;76.50;100600.12;1795918;78;21243;-72
2022/06/17 01:40:24;;;;;;;7.53;4.37;;;;;;;14.55;76.62;100596.38;1796808;78;21202;-71
2022/06/17 01:42:50;;;;;;;5.70;4.37;;;;;;;14.54;76.67;100601.48;1795123;78;21184;-71
2022/06/17 01:45:18;;;;;;;6.33;4.37;;;;;;;14.54;76.74;100598.79;1796929;78;21192;-72
2022/06/17 01:47:45;;;;;;;5.70;4.30;;;;;;;14.52;76.72;100596.40;1796777;78;21703;-72
2022/06/17 01:50:18;;;;;;;5.83;4.33;;;;;;;14.50;76.79;100595.04;1796715;78;21796;-72
2022/06/17 01:53:00;;;;;;;6.20;4.33;;;;;;;14.48;76.79;100591.30;1793461;78;21220;-72
2022/06/17 01:55:39;;;;;;;6.33;4.23;;;;;;;14.47;76.75;100591.56;1796522;78;21745;-72
2022/06/17 01:58:19;;;;;;;6.78;4.30;;;;;;;14.43;76.80;100591.88;1792709;78;21403;-73
2022/06/17 02:00:46;;;;;;;7.50;4.10;;;;;;;14.42;76.78;100597.00;1796420;78;21069;-71
2022/06/17 02:03:28;;;;;;;6.73;4.33;;;;;;;14.42;76.73;100598.34;1796341;78;21332;-72
2022/06/17 02:06:06;;;;;;;6.63;4.30;;;;;;;14.42;76.67;100593.77;1784695;78;21281;-72
2022/06/17 02:08:32;;;;;;;6.43;4.57;;;;;;;14.44;76.62;100588.89;1794777;78;21260;-71
2022/06/17 02:11:02;;;;;;;6.30;4.70;;;;;;;14.45;76.59;100591.06;1796375;78;21859;-72
2022/06/17 02:13:32;;;;;;;6.57;4.37;;;;;;;14.46;76.60;100588.63;1796896;78;21263;-73
2022/06/17 02:16:06;;;;;;;7.20;5.00;;;;;;;14.47;76.57;100584.85;1780300;78;22100;-71
2022/06/17 02:18:45;;;;;;;8.00;5.30;;;;;;;14.49;76.65;100582.70;1715947;79;21197;-72
2022/06/17 02:21:18;;;;;;;7.80;4.43;;;;;;;14.53;76.75;100582.41;1796327;78;21236;-72
2022/06/17 02:23:45;;;;;;;6.37;4.40;;;;;;;14.56;76.84;100586.42;1797338;78;21546;-73
2022/06/17 02:26:12;;;;;;;5.87;4.70;;;;;;;14.60;76.96;100582.87;1791134;78;21203;-71
2022/06/17 02:28:41;;;;;;;5.93;4.60;;;;;;;14.65;77.02;100581.50;1798906;78;21370;-73
2022/06/17 02:31:10;;;;;;;7.03;4.87;;;;;;;14.70;77.07;100577.95;1798778;79;21068;-73
2022/06/17 02:33:37;;;;;;;7.67;4.63;;;;;;;14.72;77.11;100577.94;1799221;79;21714;-72
2022/06/17 02:36:13;;;;;;;6.50;4.63;;;;;;;14.75;77.16;100577.37;1791349;79;21252;-72
2022/06/17 02:38:40;;;;;;;6.60;4.63;;;;;;;14.73;77.23;100576.84;1784221;80;21343;-72
2022/06/17 02:41:16;;;;;;;7.20;4.70;;;;;;;14.74;77.34;100576.30;1785533;80;21801;-73
2022/06/17 02:43:51;;;;;;;6.17;4.57;;;;;;;14.80;77.47;100575.70;1790750;79;21038;-72
2022/06/17 02:46:30;;;;;;;7.03;5.17;;;;;;;14.86;77.49;100566.51;1810584;78;21385;-73
2022/06/17 02:49:00;;;;;;;8.40;5.47;;;;;;;14.92;77.49;100570.75;1798915;79;21225;-73
2022/06/17 02:51:29;;;;;;;6.90;4.87;;;;;;;14.99;77.44;100564.48;1799374;78;21217;-73
2022/06/17 02:53:58;;;;;;;8.87;5.23;;;;;;;15.08;77.39;100575.42;1796700;79;21343;-73
2022/06/17 02:56:28;;;;;;;7.37;4.80;;;;;;;15.14;77.39;100569.70;1785596;79;21277;-73
2022/06/17 02:59:33;;;;;;;6.73;4.60;;;;;;;15.21;77.41;100566.11;1794638;78;21728;-72
2022/06/17 03:02:11;;;;;;;8.10;4.93;;;;;;;15.29;77.25;100570.05;1790526;78;21248;-72
2022/06/17 03:04:41;;;;;;;5.63;4.70;;;;;;;15.36;77.21;100572.39;1794910;78;21322;-72
2022/06/17 03:07:20;;;;;;;7.67;5.00;;;;;;;15.43;77.21;100566.10;1770374;78;21270;-73
2022/06/17 03:09:49;;;;;;;7.30;4.90;;;;;;;15.48;77.07;100567.39;1756419;78;21255;-72
2022/06/17 03:12:23;;;;;;;6.60;5.10;;;;;;;15.55;77.10;100562.45;1796527;78;21200;-72
2022/06/17 03:15:09;;;;;;;6.67;4.57;;;;;;;15.65;77.07;100569.04;1795236;78;21241;-71
2022/06/17 03:17:41;;;;;;;7.03;5.27;;;;;;;15.76;77.06;100562.19;1799057;79;21304;-73
2022/06/17 03:20:23;;;;;;;7.73;4.93;;;;;;;15.84;77.04;100558.31;1799104;78;23105;-72
2022/06/17 03:22:53;;;;;;;6.70;4.45;;;;;;;15.94;77.03;100561.39;1796157;78;21308;-73
2022/06/17 03:25:32;;;;;;;6.67;4.83;;;;;;;16.02;77.00;100563.41;1797820;78;21039;-73
2022/06/17 03:28:03;;;;;;;9.10;5.00;;;;;;;16.10;76.76;100553.33;1798970;79;22128;-73
2022/06/17 03:30:44;;;;;;;7.77;4.37;;;;;;;16.28;76.82;100565.16;1797980;78;21398;-72
2022/06/17 03:33:25;;;;;;;6.83;4.50;;;;;;;16.28;76.82;100565.16;1790649;78;21752;-73
2022/06/17 03:35:57;;;;;;;7.70;4.60;;;;;;;16.53;76.12;100555.85;1796189;78;21038;-72
2022/06/17 03:38:38;;;;;;;5.55;4.42;;;;;;;16.53;76.12;100555.85;1797323;78;21542;-72
2022/06/17 03:41:13;;;;;;;6.33;4.90;;;;;;;16.68;76.06;100556.11;1793492;78;20979;-72
2022/06/17 03:43:48;;;;;;;6.17;4.63;;;;;;;16.80;75.84;100547.58;1790273;78;21004;-72
2022/06/17 03:46:15;;;;;;;7.70;4.90;;;;;;;16.87;75.70;100551.47;1799415;78;21586;-73
2022/06/17 03:49:07;;;;;;;8.30;5.20;;;;;;;16.87;75.46;100554.72;1798511;78;21708;-72
2022/06/17 03:51:36;;;;;;;12.33;4.77;;;;;;;17.00;75.67;100553.13;1768959;78;22265;-72
2022/06/17 03:54:04;;;;;;;7.27;5.30;;;;;;;17.16;75.47;100546.89;1746335;78;21712;-72
2022/06/17 03:56:35;;;;;;;5.90;5.07;;;;;;;17.29;75.20;100549.56;1795170;78;22260;-72
2022/06/17 03:59:06;;;;;;;10.30;5.10;;;;;;;17.41;74.74;100552.31;1799020;78;21601;-71
2022/06/17 04:01:45;;;;;;;7.47;5.47;;;;;;;17.52;74.34;100553.13;1796064;78;21171;-72
2022/06/17 04:04:25;;;;;;;7.03;4.90;;;;;;;17.80;73.75;100549.02;1795755;78;22251;-72
2022/06/17 04:06:56;;;;;;;6.33;4.90;;;;;;;17.89;73.20;100546.41;1798535;78;20944;-73
2022/06/17 04:09:41;;;;;;;7.27;4.87;;;;;;;17.89;73.20;100546.41;1797181;78;21008;-73
2022/06/17 04:12:19;;;;;;;7.77;5.20;;;;;;;17.98;72.87;100549.42;1797126;78;21466;-72
2022/06/17 04:15:02;;;;;;;6.47;5.10;;;;;;;18.03;72.76;100553.36;1788513;78;20976;-73
2022/06/17 04:17:41;;;;;;;7.83;5.30;;;;;;;18.11;72.46;100552.37;1797121;78;21334;-72
2022/06/17 04:20:40;;;;;;;8.17;4.90;;;;;;;18.20;72.11;100551.33;1793646;78;21020;-71
2022/06/17 04:23:16;;;;;;;6.93;4.40;;;;;;;18.30;71.56;100552.98;1793334;78;21043;-71
2022/06/17 04:26:27;;;;;;;5.90;4.60;;;;;;;18.44;70.48;100543.44;1795794;78;21392;-71
2022/06/17 04:29:04;;;;;;;6.90;4.20;;;;;;;18.57;68.92;100545.26;1793919;78;20976;-73
2022/06/17 04:31:35;;;;;;;7.63;4.37;;;;;;;18.72;67.12;100546.25;1796949;78;20985;-72
2022/06/17 04:34:16;;;;;;;6.57;4.30;;;;;;;18.86;65.67;100546.70;1794564;78;21589;-73
2022/06/17 04:36:58;;;;;;;5.73;4.00;;;;;;;19.00;64.64;100541.96;1767975;81;21436;-72
2022/06/17 04:39:34;;;;;;;6.87;3.80;;;;;;;19.13;64.39;100539.69;1787843;78;21164;-72
2022/06/17 04:42:10;;;;;;;5.70;3.77;;;;;;;19.23;61.84;100539.16;1793777;78;21442;-73
2022/06/17 04:44:46;;;;;;;5.13;3.73;;;;;;;19.33;60.49;100541.01;1799259;78;21035;-73
2022/06/17 04:47:16;;;;;;;5.20;3.63;;;;;;;19.48;60.52;100534.35;1797686;78;21162;-72
2022/06/17 04:49:53;;;;;;;7.67;3.70;;;;;;;19.68;59.52;100535.11;1796664;78;20949;-72
2022/06/17 04:52:38;;;;;;;5.97;4.10;;;;;;;19.86;58.37;100534.53;1794528;78;21121;-72
2022/06/17 04:55:12;;;;;;;5.87;3.60;;;;;;;20.02;57.38;100536.20;1793683;78;22100;-71
2022/06/17 04:57:41;;;;;;;5.77;3.43;;;;;;;20.18;56.20;100534.36;1792475;78;21098;-71
2022/06/17 05:00:20;;;;;;;4.62;3.33;;;;;;;20.33;55.62;100535.19;1796442;78;21198;-72
2022/06/17 05:02:49;;;;;;;5.20;3.50;;;;;;;20.49;55.39;100528.12;1797291;78;20929;-72
2022/06/17 05:05:35;;;;;;;5.63;3.53;;;;;;;20.64;54.35;100534.19;1791639;78;21269;-72
2022/06/17 05:08:08;;;;;;;4.67;3.50;;;;;;;20.74;54.41;100526.47;1795070;78;21154;-71
2022/06/17 05:10:40;;;;;;;6.53;3.87;;;;;;;20.82;53.79;100533.77;1795150;78;21034;-70
2022/06/17 05:13:30;;;;;;;6.43;4.37;;;;;;;20.75;53.86;100534.84;1796648;78;21585;-72
2022/06/17 05:16:00;;;;;;;7.13;4.63;;;;;;;20.79;54.10;100531.70;1769638;78;20977;-71
2022/06/17 05:18:28;;;;;;;7.43;4.20;;;;;;;20.91;54.63;100533.73;1720599;81;21067;-72
2022/06/17 05:20:56;;;;;;;5.90;3.70;;;;;;;21.01;54.05;100527.14;1735946;80;21535;-72
2022/06/17 05:23:23;;;;;;;4.93;3.57;;;;;;;21.02;53.18;100524.08;1741822;80;21054;-73
2022/06/17 05:25:50;;;;;;;6.70;3.47;;;;;;;21.05;52.24;100519.92;1740442;80;21557;-72
2022/06/17 05:28:20;;;;;;;5.30;3.40;;;;;;;21.10;52.21;100522.46;1746176;80;21007;-71
2022/06/17 05:30:52;;;;;;;8.08;3.20;;;;;;;21.20;52.14;100520.72;1732502;80;21138;-73
2022/06/17 05:33:21;;;;;;;6.45;3.25;;;;;;;21.26;51.26;100517.25;1725809;82;21053;-73
2022/06/17 05:35:49;;;;;;;5.53;3.60;;;;;;;21.31;50.90;100513.77;1742379;80;20974;-72
2022/06/17 05:38:16;;;;;;;5.30;3.50;;;;;;;21.38;51.23;100517.34;1741413;80;21034;-72
2022/06/17 05:40:44;;;;;;;4.37;3.37;;;;;;;21.58;51.50;100514.39;1741425;80;21472;-71
2022/06/17 05:43:11;;;;;;;6.80;3.57;;;;;;;21.74;50.44;100515.95;1742399;80;21162;-71
2022/06/17 05:45:38;;;;;;;5.40;3.43;;;;;;;21.88;49.50;100516.48;1741942;80;21132;-72
2022/06/17 05:48:23;;;;;;;6.20;4.00;;;;;;;22.01;48.74;100514.58;1741465;80;21089;-71
2022/06/17 05:51:01;;;;;;;8.00;4.37;;;;;;;22.09;48.14;100517.00;1739309;80;21046;-72
2022/06/17 05:53:29;;;;;;;5.77;3.80;;;;;;;22.07;48.25;100519.25;1735141;82;21008;-71
2022/06/17 05:55:58;;;;;;;5.87;3.50;;;;;;;22.15;48.95;100517.84;1737440;82;21161;-71
2022/06/17 05:58:25;;;;;;;6.37;3.80;;;;;;;22.27;48.31;100517.63;1741074;81;21055;-72
2022/06/17 06:00:53;;;;;;;6.30;3.83;;;;;;;22.30;47.59;100514.23;1742170;82;21011;-73
2022/06/17 06:03:24;;;;;;;5.77;3.87;;;;;;;22.38;47.64;100512.00;1736323;81;21089;-72
2022/06/17 06:05:51;;;;;;;5.70;3.67;;;;;;;22.51;47.46;100508.17;1730877;81;20979;-72
2022/06/17 06:08:19;;;;;;;4.50;3.60;;;;;;;22.62;47.18;100510.66;1772100;80;21330;-71
2022/06/17 06:10:47;;;;;;;19.30;4.33;;;;;;;22.74;46.61;100509.89;1742052;80;21481;-71
2022/06/17 06:13:19;;;;;;;6.60;3.20;;;;;;;22.90;47.03;100508.61;1742487;81;21457;-71
2022/06/17 06:15:49;;;;;;;5.97;3.40;;;;;;;23.05;46.35;100510.69;1741796;82;21041;-71
2022/06/17 06:18:24;;;;;;;6.83;3.30;;;;;;;23.20;45.60;100509.75;1742284;82;21064;-69
2022/06/17 06:20:52;;;;;;;4.83;2.87;;;;;;;23.36;44.94;100507.91;1742296;82;21134;-72
2022/06/17 06:23:19;;;;;;;5.00;2.80;;;;;;;23.47;43.99;100508.23;1738890;82;21214;-71
2022/06/17 06:25:45;;;;;;;7.50;2.80;;;;;;;23.54;43.79;100509.80;1728237;83;21017;-72
2022/06/17 06:28:16;;;;;;;4.87;2.70;;;;;;;23.67;43.44;100502.38;1740956;81;21023;-70
2022/06/17 06:30:43;;;;;;;3.67;2.40;;;;;;;23.79;42.71;100499.61;1737395;82;21419;-71
2022/06/17 06:33:10;;;;;;;5.50;2.40;;;;;;;23.93;42.65;100501.38;1738442;80;21152;-71
2022/06/17 06:35:38;;;;;;;4.30;2.37;;;;;;;24.11;41.82;100494.45;1711073;82;21002;-71
2022/06/17 06:38:05;;;;;;;4.30;2.30;;;;;;;24.20;41.20;100492.14;1710598;82;21006;-72
2022/06/17 06:40:33;;;;;;;5.33;2.37;;;;;;;24.23;41.19;100492.81;1735252;82;21564;-71
2022/06/17 06:43:00;;;;;;;7.13;3.37;;;;;;;24.25;41.05;100494.05;1711441;83;21627;-71
2022/06/17 06:45:48;;;;;;;3.30;1.97;;;;;;;24.38;41.45;100489.85;1736183;82;21144;-72
2022/06/17 06:48:17;;;;;;;4.87;2.33;;;;;;;24.57;39.91;100485.88;1742368;81;21093;-72
2022/06/17 06:50:45;;;;;;;4.40;2.10;;;;;;;24.75;39.28;100486.31;1697925;82;20972;-70
2022/06/17 06:53:11;;;;;;;5.80;2.40;;;;;;;24.87;38.78;100477.99;1741223;80;21091;-72
2022/06/17 06:55:38;;;;;;;7.33;3.97;;;;;;;25.06;39.22;100478.62;1733505;80;21093;-73
2022/06/17 06:58:15;;;;;;;3.20;1.80;;;;;;;25.30;38.82;100477.59;1740224;82;21901;-71
2022/06/17 07:00:49;;;;;;;6.30;2.43;;;;;;;25.57;38.04;100473.09;1734172;81;20953;-72
2022/06/17 07:03:17;;;;;;;4.10;2.10;;;;;;;25.70;36.92;100475.10;1733530;81;22799;-72
2022/06/17 07:05:48;;;;;;;4.73;2.13;;;;;;;25.86;36.15;100475.80;1736895;80;21415;-72
2022/06/17 07:08:18;;;;;;;6.17;2.20;;;;;;;25.98;36.86;100474.08;1738437;80;20958;-72
2022/06/17 07:10:45;;;;;;;3.93;2.00;;;;;;;26.04;37.12;100465.78;1710225;81;21257;-72
2022/06/17 07:13:12;;;;;;;3.17;1.87;;;;;;;26.19;36.52;100474.44;1741342;80;20985;-71
2022/06/17 07:15:42;;;;;;;4.07;1.90;;;;;;;26.32;34.60;100469.57;1740893;80;21051;-71
2022/06/17 07:18:27;;;;;;;3.63;1.97;;;;;;;26.36;34.26;100475.34;1749344;80;21095;-72
2022/06/17 07:21:02;;;;;;;2.73;1.83;;;;;;;26.36;34.34;100475.34;1738893;80;21004;-71
2022/06/17 07:23:35;;;;;;;3.37;1.90;;;;;;;26.48;33.89;100477.69;1741023;80;21170;-72
2022/06/17 07:26:06;;;;;;;4.60;2.03;;;;;;;26.51;34.26;100473.64;1740045;80;21510;-73
2022/06/17 07:28:33;;;;;;;3.07;1.80;;;;;;;26.63;34.39;100475.40;1739594;82;21016;-73
2022/06/17 07:31:00;;;;;;;6.13;2.10;;;;;;;26.75;32.85;100472.46;1742875;80;21035;-73
2022/06/17 07:33:30;;;;;;;4.60;1.70;;;;;;;26.79;33.02;100474.67;1742596;82;21622;-73
2022/06/17 07:36:00;;;;;;;2.87;1.77;;;;;;;26.85;33.02;100469.64;1742152;81;21315;-73
2022/06/17 07:41:23;;;;;;;3.62;1.57;;;;;;;26.99;32.89;100468.49;1742744;80;21029;-75
2022/06/17 07:43:51;;;;;;;4.90;1.83;;;;;;;27.07;31.85;100476.22;1739965;80;21494;-72
2022/06/17 07:46:19;;;;;;;3.47;1.50;;;;;;;27.11;31.72;100472.39;1740458;80;21572;-73
2022/06/17 07:48:46;;;;;;;3.97;1.20;;;;;;;27.14;31.69;100476.34;1742100;80;21182;-72
2022/06/17 07:51:13;;;;;;;3.80;1.60;;;;;;;27.13;30.62;100472.81;1742700;81;21424;-72
2022/06/17 07:53:42;;;;;;;2.20;1.40;;;;;;;27.15;31.12;100479.31;1740493;80;21462;-72
2022/06/17 07:56:13;;;;;;;2.70;1.70;;;;;;;27.16;29.66;100480.89;1739279;80;21225;-73
2022/06/17 07:58:43;;;;;;;3.93;1.60;;;;;;;26.98;29.99;100472.38;1738089;80;21569;-72
2022/06/17 08:01:12;;;;;;;4.27;1.77;;;;;;;26.85;30.45;100471.83;1741000;80;21547;-72
2022/06/17 08:03:39;;;;;;;4.37;1.73;;;;;;;26.86;30.99;100473.39;1726153;83;21113;-71
2022/06/17 08:06:07;;;;;;;4.90;1.97;;;;;;;26.94;30.23;100476.23;1738002;80;21688;-72
2022/06/17 08:08:35;;;;;;;4.77;1.70;;;;;;;27.04;31.21;100471.48;1707146;80;21479;-72
2022/06/17 08:11:01;;;;;;;4.00;1.70;;;;;;;27.08;30.42;100475.87;1740210;80;21102;-71
2022/06/17 08:13:28;;;;;;;3.37;1.57;;;;;;;27.10;30.35;100472.74;1740968;80;21171;-73
2022/06/17 08:16:00;;;;;;;4.93;1.67;;;;;;;27.07;28.68;100474.27;1739956;80;21089;-71
2022/06/17 08:18:27;;;;;;;3.63;1.53;;;;;;;26.87;29.24;100468.12;1742031;80;20920;-71
2022/06/17 08:20:54;;;;;;;3.17;1.50;;;;;;;26.65;29.12;100473.06;1712977;80;21014;-73
2022/06/17 08:23:21;;;;;;;2.53;1.40;;;;;;;26.54;29.29;100472.12;1741303;80;21000;-70
2022/06/17 08:25:48;;;;;;;4.33;1.50;;;;;;;26.55;28.57;100473.69;1745267;80;21976;-71
2022/06/17 08:28:15;;;;;;;2.60;1.57;;;;;;;26.37;29.39;100469.28;1742028;80;21653;-71
2022/06/17 08:30:51;;;;;;;4.43;1.73;;;;;;;26.25;30.40;100469.45;1742563;80;21492;-72
2022/06/17 08:33:29;;;;;;;3.53;1.73;;;;;;;26.17;30.05;100470.70;1741471;80;21073;-72
2022/06/17 08:36:04;;;;;;;2.23;1.40;;;;;;;26.14;30.53;100467.91;1741236;80;21009;-72
2022/06/17 08:38:33;;;;;;;3.07;1.50;;;;;;;26.09;30.13;100473.67;1739625;80;21216;-71
2022/06/17 08:41:21;;;;;;;3.53;1.60;;;;;;;26.00;30.44;100470.41;1738911;80;21660;-83
2022/06/17 08:44:19;;;;;;;3.63;1.53;;;;;;;25.92;30.07;100467.52;1742880;82;21183;-85
2022/06/17 08:47:13;;;;;;;3.17;1.60;;;;;;;25.88;29.99;100462.56;1742102;80;21043;-73
2022/06/17 08:49:55;;;;;;;3.70;1.90;;;;;;;25.93;30.73;100463.65;1742680;81;21454;-73
2022/06/17 08:52:53;;;;;;;4.28;1.55;;;;;;;26.08;30.42;100468.00;1743157;80;21621;-73
2022/06/17 08:55:46;;;;;;;3.80;1.70;;;;;;;26.19;29.40;100467.59;1741864;80;21062;-76
2022/06/17 08:58:26;;;;;;;5.17;1.60;;;;;;;26.23;29.33;100467.09;1740530;80;21055;-73
2022/06/17 09:01:20;;;;;;;4.07;1.80;;;;;;;26.20;29.84;100471.94;1744114;80;21081;-78
2022/06/17 09:04:08;;;;;;;;;;;;;;;26.10;29.91;100467.85;1744137;80;21052;-74
2022/06/17 09:06:54;;;;;;;3.47;1.60;;;;;;;26.03;30.43;100468.28;1742637;80;21228;-74
2022/06/17 09:10:03;;;;;;;3.77;1.90;;;;;;;25.89;30.09;100464.14;1729300;80;21035;-73
2022/06/17 09:13:17;;;;;;;2.63;1.50;;;;;;;25.66;30.05;100473.64;1741869;80;22457;-72
2022/06/17 09:16:03;;;;;;;3.47;1.80;;;;;;;25.60;30.63;100477.02;1741437;80;21123;-74
2022/06/17 09:18:38;;;;;;;3.77;1.57;;;;;;;25.58;30.57;100468.41;1645267;80;21713;-74
2022/06/17 09:21:19;;;;;;;3.37;1.43;;;;;;;25.52;30.58;100465.16;1739887;80;21360;-73
2022/06/17 09:23:46;;;;;;;2.87;1.60;;;;;;;25.53;30.74;100468.69;1741848;80;21014;-74
2022/06/17 09:26:29;;;;;;;2.57;1.57;;;;;;;25.55;30.48;100468.55;1741668;80;21133;-73
2022/06/17 09:29:00;;;;;;;2.00;1.40;;;;;;;25.55;30.91;100470.49;1740734;80;21706;-73
2022/06/17 09:31:48;;;;;;;3.07;1.60;;;;;;;25.52;30.51;100473.37;1741502;80;21079;-74
2022/06/17 09:34:29;;;;;;;3.30;1.47;;;;;;;25.41;30.46;100466.32;1742629;82;21634;-73
2022/06/17 09:37:03;;;;;;;3.77;1.60;;;;;;;25.43;30.89;100463.21;1742518;80;21514;-72
2022/06/17 09:39:41;;;;;;;4.13;1.40;;;;;;;25.44;30.62;100464.23;1739703;80;21055;-73
2022/06/17 09:42:38;;;;;;;3.27;1.53;;;;;;;25.46;30.94;100463.28;1739746;80;21082;-73
2022/06/17 09:45:16;;;;;;;4.83;1.80;;;;;;;25.54;29.76;100466.19;1741993;80;21118;-72
2022/06/17 09:47:46;;;;;;;3.00;1.60;;;;;;;25.58;29.40;100462.94;1741407;82;21121;-73
2022/06/17 09:50:44;;;;;;;3.83;1.42;;;;;;;25.60;29.39;100458.70;1742715;81;21015;-72
2022/06/17 09:53:33;;;;;;;4.77;1.50;;;;;;;25.69;29.66;100453.77;1741830;80;21074;-72
2022/06/17 09:56:14;;;;;;;;;;;;;;;25.85;29.77;100458.39;1745319;81;20976;-73
2022/06/17 09:58:49;;;;;;;3.30;1.40;;;;;;;25.93;29.39;100450.55;1742676;82;20170;-73
2022/06/17 10:01:16;;;;;;;2.57;1.37;;;;;;;26.06;29.46;100451.95;1741622;80;21260;-72
2022/06/17 10:03:42;;;;;;;3.87;1.70;;;;;;;26.26;28.21;100451.31;1741659;80;21055;-73
2022/06/17 10:06:36;;;;;;;5.50;1.60;;;;;;;26.24;28.49;100452.24;1741375;80;21041;-72
2022/06/17 10:09:24;;;;;;;2.87;1.40;;;;;;;26.17;28.24;100445.28;1739742;80;21002;-72
2022/06/17 10:12:17;;;;;;;2.80;1.33;;;;;;;26.18;27.90;100441.38;1700887;80;21046;-73
2022/06/17 10:15:26;;;;;;;3.53;1.40;;;;;;;26.20;28.11;100441.23;1740399;80;21153;-73
2022/06/17 10:18:32;;;;;;;3.17;1.40;;;;;;;26.46;27.75;100437.55;1741306;80;21614;-73
2022/06/17 10:21:25;;;;;;;4.00;1.43;;;;;;;26.83;26.99;100431.66;1728471;80;21528;-73
2022/06/17 10:24:17;;;;;;;3.73;1.40;;;;;;;27.17;27.15;100433.11;1741454;80;21057;-73
2022/06/17 10:27:14;;;;;;;1.90;1.17;;;;;;;27.36;25.94;100423.35;1742445;80;20965;-74
2022/06/17 10:30:03;;;;;;;3.40;1.47;;;;;;;27.49;26.22;100423.89;1740236;80;21075;-72
2022/06/17 10:32:32;;;;;;;3.63;1.60;;;;;;;27.55;26.41;100420.23;1741442;80;21605;-73
2022/06/17 10:35:02;;;;;;;2.20;1.30;;;;;;;27.64;26.24;100410.31;1711989;80;21062;-72
2022/06/17 10:37:34;;;;;;;2.37;1.40;;;;;;;27.81;25.97;100411.91;1741367;80;21055;-74
2022/06/17 10:40:02;;;;;;;2.00;1.20;;;;;;;27.90;26.20;100406.09;1739577;80;21524;-74
2022/06/17 10:42:29;;;;;;;3.23;1.37;;;;;;;28.02;25.69;100405.03;1745704;80;21190;-73
2022/06/17 10:44:59;;;;;;;2.40;1.20;;;;;;;28.06;24.91;100405.84;1741422;80;21161;-73
2022/06/17 10:47:37;;;;;;;1.97;1.37;;;;;;;28.01;24.20;100404.25;1741584;80;21550;-73
2022/06/17 10:50:27;;;;;;;2.30;1.43;;;;;;;27.90;24.49;100401.19;1741622;80;21203;-73
2022/06/17 10:53:24;;;;;;;2.07;1.20;;;;;;;27.88;24.98;100399.42;1741586;80;21039;-73
2022/06/17 10:55:58;;;;;;;1.87;1.20;;;;;;;27.87;24.46;100404.69;1742621;80;21241;-73
2022/06/17 10:58:30;;;;;;;2.00;1.30;;;;;;;27.95;24.36;100391.25;1746013;80;21557;-73
2022/06/17 11:01:07;;;;;;;2.40;1.30;;;;;;;28.12;23.87;100391.19;1765928;80;21063;-73
2022/06/17 11:03:39;;;;;;;2.73;1.03;;;;;;;28.19;23.61;100388.50;1742278;80;21012;-74
2022/06/17 11:06:20;;;;;;;2.73;1.40;;;;;;;28.26;23.53;100383.05;1742666;81;21019;-73
2022/06/17 11:08:56;;;;;;;2.15;1.07;;;;;;;28.34;24.04;100389.41;1742912;80;21927;-73
2022/06/17 11:14:43;;;;;;;3.77;1.47;;;;;;;28.44;23.59;100382.63;1742677;82;21574;-74
2022/06/17 11:17:30;;;;;;;3.20;1.30;;;;;;;28.46;22.78;100380.30;1741527;81;21480;-73
2022/06/17 11:20:08;;;;;;;1.83;1.10;;;;;;;28.37;22.60;100376.28;1742819;81;21047;-73
2022/06/17 11:22:38;;;;;;;4.30;1.20;;;;;;;28.22;22.54;100378.91;1730061;82;21183;-72
2022/06/17 11:25:10;;;;;;;1.67;1.20;;;;;;;28.13;22.86;100368.05;1709839;84;21432;-74
2022/06/17 11:27:42;;;;;;;2.00;1.30;;;;;;;28.19;22.71;100371.42;1693509;80;21122;-73
2022/06/17 11:30:26;;;;;;;2.17;1.20;;;;;;;28.31;22.76;100367.60;1779215;80;20960;-73
2022/06/17 11:32:54;;;;;;;2.20;1.10;;;;;;;28.55;22.90;100361.30;1753669;80;20964;-74
2022/06/17 11:35:37;;;;;;;2.93;1.30;;;;;;;28.80;22.88;100361.44;1741989;80;21108;-72
2022/06/17 11:38:12;;;;;;;1.97;1.17;;;;;;;28.95;22.61;100354.81;1741581;80;21543;-73
2022/06/17 11:40:52;;;;;;;2.40;1.35;;;;;;;28.95;22.19;100348.72;1727716;82;38431;-73
2022/06/17 11:43:42;;;;;;;2.97;1.30;;;;;;;29.14;21.87;100357.27;1742172;82;21028;-74
2022/06/17 11:46:18;;;;;;;3.27;1.20;;;;;;;29.34;21.63;100354.96;1741518;81;21561;-73
2022/06/17 11:49:10;;;;;;;3.30;1.30;;;;;;;29.38;21.28;100346.71;1741163;80;21877;-74
2022/06/17 11:51:41;;;;;;;4.13;1.27;;;;;;;29.47;21.02;100340.25;1691083;80;21098;-74
2022/06/17 11:54:19;;;;;;;2.03;1.20;;;;;;;29.64;21.41;100349.73;1741603;80;21053;-73
2022/06/17 11:56:46;;;;;;;2.50;1.30;;;;;;;29.80;20.48;100338.34;1741345;80;21101;-73
2022/06/17 11:59:20;;;;;;;3.60;1.43;;;;;;;29.86;20.89;100343.06;1738099;80;20946;-75
2022/06/17 12:02:01;;;;;;;3.07;1.30;;;;;;;29.83;20.86;100335.59;1743021;80;21444;-75
2022/06/17 12:04:55;;;;;;;4.03;1.30;;;;;;;29.71;21.35;100348.95;1742766;80;21047;-73
2022/06/17 12:07:33;;;;;;;3.57;1.30;;;;;;;29.51;22.33;100346.53;1738126;80;21522;-73
2022/06/17 12:10:56;;;;;;;4.97;1.27;;;;;;;29.17;22.73;100341.36;1741755;80;21570;-73